sensor_id;sensor_type;location;lat;lon;timestamp;pressure;altitude;pressure_sealevel;temperature
72054;BMP280;59918;51.280;7.950;2022-12-18T00:01:00;99121.41;;;-3.04
72054;BMP280;59918;51.280;7.950;2022-12-18T00:03:25;99124.75;;;-3.03
72054;BMP280;59918;51.280;7.950;2022-12-18T00:05:51;99124.91;;;-3.06
72054;BMP280;59918;51.280;7.950;2022-12-18T00:08:17;99125.63;;;-3.04
72054;BMP280;59918;51.280;7.950;2022-12-18T00:10:42;99138.59;;;-2.96
72054;BMP280;59918;51.280;7.950;2022-12-18T00:13:08;99130.50;;;-2.88
72054;BMP280;59918;51.280;7.950;2022-12-18T00:15:35;99133.53;;;-2.83
72054;BMP280;59918;51.280;7.950;2022-12-18T00:18:00;99134.09;;;-2.78
72054;BMP280;59918;51.280;7.950;2022-12-18T00:20:25;99132.28;;;-2.76
72054;BMP280;59918;51.280;7.950;2022-12-18T00:22:54;99144.69;;;-2.73
72054;BMP280;59918;51.280;7.950;2022-12-18T00:25:20;99142.72;;;-2.68
72054;BMP280;59918;51.280;7.950;2022-12-18T00:27:45;99142.53;;;-2.65
72054;BMP280;59918;51.280;7.950;2022-12-18T00:30:11;99127.63;;;-2.68
72054;BMP280;59918;51.280;7.950;2022-12-18T00:32:36;99125.19;;;-2.69
72054;BMP280;59918;51.280;7.950;2022-12-18T00:35:01;99122.81;;;-2.72
72054;BMP280;59918;51.280;7.950;2022-12-18T00:37:26;99127.25;;;-2.76
72054;BMP280;59918;51.280;7.950;2022-12-18T00:39:51;99128.06;;;-2.75
72054;BMP280;59918;51.280;7.950;2022-12-18T00:42:17;99129.56;;;-2.73
72054;BMP280;59918;51.280;7.950;2022-12-18T00:44:42;99144.41;;;-2.68
72054;BMP280;59918;51.280;7.950;2022-12-18T00:47:07;99140.28;;;-2.69
72054;BMP280;59918;51.280;7.950;2022-12-18T00:49:32;99132.81;;;-2.71
72054;BMP280;59918;51.280;7.950;2022-12-18T00:51:58;99135.25;;;-2.69
72054;BMP280;59918;51.280;7.950;2022-12-18T00:54:23;99132.66;;;-2.68
72054;BMP280;59918;51.280;7.950;2022-12-18T00:56:48;99135.97;;;-2.67
72054;BMP280;59918;51.280;7.950;2022-12-18T00:59:14;99147.75;;;-2.68
72054;BMP280;59918;51.280;7.950;2022-12-18T01:01:39;99146.75;;;-2.65
72054;BMP280;59918;51.280;7.950;2022-12-18T01:04:05;99135.88;;;-2.66
72054;BMP280;59918;51.280;7.950;2022-12-18T01:06:30;99141.88;;;-2.68
72054;BMP280;59918;51.280;7.950;2022-12-18T01:08:55;99141.81;;;-2.67
72054;BMP280;59918;51.280;7.950;2022-12-18T01:11:21;99138.56;;;-2.69
72054;BMP280;59918;51.280;7.950;2022-12-18T01:13:47;99144.53;;;-2.70
72054;BMP280;59918;51.280;7.950;2022-12-18T01:16:14;99132.91;;;-2.72
72054;BMP280;59918;51.280;7.950;2022-12-18T01:18:40;99127.25;;;-2.76
72054;BMP280;59918;51.280;7.950;2022-12-18T01:21:10;99126.53;;;-2.78
72054;BMP280;59918;51.280;7.950;2022-12-18T01:23:35;99111.59;;;-2.81
72054;BMP280;59918;51.280;7.950;2022-12-18T01:26:11;99113.31;;;-2.81
72054;BMP280;59918;51.280;7.950;2022-12-18T01:28:38;99105.75;;;-2.81
72054;BMP280;59918;51.280;7.950;2022-12-18T01:31:31;99107.13;;;-2.76
72054;BMP280;59918;51.280;7.950;2022-12-18T01:33:59;99112.16;;;-2.76
72054;BMP280;59918;51.280;7.950;2022-12-18T01:36:30;99114.47;;;-2.73
72054;BMP280;59918;51.280;7.950;2022-12-18T01:38:56;99116.00;;;-2.70
72054;BMP280;59918;51.280;7.950;2022-12-18T01:41:24;99117.53;;;-2.68
72054;BMP280;59918;51.280;7.950;2022-12-18T01:43:56;99113.31;;;-2.67
72054;BMP280;59918;51.280;7.950;2022-12-18T01:46:22;99120.94;;;-2.69
72054;BMP280;59918;51.280;7.950;2022-12-18T01:48:52;99124.38;;;-2.70
72054;BMP280;59918;51.280;7.950;2022-12-18T01:51:18;99124.91;;;-2.79
72054;BMP280;59918;51.280;7.950;2022-12-18T01:53:45;99137.34;;;-2.76
72054;BMP280;59918;51.280;7.950;2022-12-18T01:56:16;99144.88;;;-2.76
72054;BMP280;59918;51.280;7.950;2022-12-18T01:58:50;99141.66;;;-2.78
72054;BMP280;59918;51.280;7.950;2022-12-18T02:01:17;99152.88;;;-2.83
72054;BMP280;59918;51.280;7.950;2022-12-18T02:03:44;99146.50;;;-2.89
72054;BMP280;59918;51.280;7.950;2022-12-18T02:06:37;99145.25;;;-2.95
72054;BMP280;59918;51.280;7.950;2022-12-18T02:14:21;99145.19;;;-3.23
72054;BMP280;59918;51.280;7.950;2022-12-18T02:16:59;99151.22;;;-3.26
72054;BMP280;59918;51.280;7.950;2022-12-18T02:25:02;99135.09;;;-3.37
72054;BMP280;59918;51.280;7.950;2022-12-18T02:27:31;99131.88;;;-3.39
72054;BMP280;59918;51.280;7.950;2022-12-18T02:29:57;99127.91;;;-3.43
72054;BMP280;59918;51.280;7.950;2022-12-18T02:32:27;99137.81;;;-3.40
72054;BMP280;59918;51.280;7.950;2022-12-18T02:34:55;99125.69;;;-3.33
72054;BMP280;59918;51.280;7.950;2022-12-18T02:37:22;99125.78;;;-3.21
72054;BMP280;59918;51.280;7.950;2022-12-18T02:39:49;99121.88;;;-3.11
72054;BMP280;59918;51.280;7.950;2022-12-18T02:42:16;99125.63;;;-3.04
72054;BMP280;59918;51.280;7.950;2022-12-18T02:44:43;99121.88;;;-2.97
72054;BMP280;59918;51.280;7.950;2022-12-18T02:47:10;99115.84;;;-2.95
72054;BMP280;59918;51.280;7.950;2022-12-18T02:49:43;99122.47;;;-2.94
72054;BMP280;59918;51.280;7.950;2022-12-18T02:52:13;99117.66;;;-2.97
72054;BMP280;59918;51.280;7.950;2022-12-18T03:00:14;99125.63;;;-3.04
72054;BMP280;59918;51.280;7.950;2022-12-18T03:03:27;99117.91;;;-3.01
72054;BMP280;59918;51.280;7.950;2022-12-18T03:08:10;99127.34;;;-3.05
72054;BMP280;59918;51.280;7.950;2022-12-18T03:11:11;99122.13;;;-3.02
72054;BMP280;59918;51.280;7.950;2022-12-18T03:16:09;99109.88;;;-2.94
72054;BMP280;59918;51.280;7.950;2022-12-18T03:18:56;99105.69;;;-2.93
72054;BMP280;59918;51.280;7.950;2022-12-18T03:21:26;99106.56;;;-2.94
72054;BMP280;59918;51.280;7.950;2022-12-18T03:23:54;99106.84;;;-2.99
72054;BMP280;59918;51.280;7.950;2022-12-18T03:26:24;99110.88;;;-2.96
72054;BMP280;59918;51.280;7.950;2022-12-18T03:28:53;99104.84;;;-2.94
72054;BMP280;59918;51.280;7.950;2022-12-18T03:31:23;99106.78;;;-2.97
72054;BMP280;59918;51.280;7.950;2022-12-18T03:33:53;99108.28;;;-2.95
72054;BMP280;59918;51.280;7.950;2022-12-18T03:36:19;99109.28;;;-2.97
72054;BMP280;59918;51.280;7.950;2022-12-18T03:38:44;99115.03;;;-2.95
72054;BMP280;59918;51.280;7.950;2022-12-18T03:41:32;99111.44;;;-2.91
72054;BMP280;59918;51.280;7.950;2022-12-18T03:44:10;99110.53;;;-2.91
72054;BMP280;59918;51.280;7.950;2022-12-18T03:46:41;99103.06;;;-2.92
72054;BMP280;59918;51.280;7.950;2022-12-18T03:49:11;99102.34;;;-2.94
72054;BMP280;59918;51.280;7.950;2022-12-18T03:51:52;99108.09;;;-2.92
72054;BMP280;59918;51.280;7.950;2022-12-18T03:54:20;99102.25;;;-2.92
72054;BMP280;59918;51.280;7.950;2022-12-18T03:56:49;99102.19;;;-2.91
72054;BMP280;59918;51.280;7.950;2022-12-18T03:59:18;99092.03;;;-2.90
72054;BMP280;59918;51.280;7.950;2022-12-18T04:01:47;99091.81;;;-2.87
72054;BMP280;59918;51.280;7.950;2022-12-18T04:04:15;99095.25;;;-2.88
72054;BMP280;59918;51.280;7.950;2022-12-18T04:06:41;99089.38;;;-2.88
72054;BMP280;59918;51.280;7.950;2022-12-18T04:09:07;99087.16;;;-2.92
72054;BMP280;59918;51.280;7.950;2022-12-18T04:11:33;99093.69;;;-2.90
72054;BMP280;59918;51.280;7.950;2022-12-18T04:13:58;99097.66;;;-2.86
72054;BMP280;59918;51.280;7.950;2022-12-18T04:16:25;99104.13;;;-2.82
72054;BMP280;59918;51.280;7.950;2022-12-18T04:18:51;99120.06;;;-2.82
72054;BMP280;59918;51.280;7.950;2022-12-18T04:21:17;99116.84;;;-2.84
72054;BMP280;59918;51.280;7.950;2022-12-18T04:23:42;99110.44;;;-2.89
72054;BMP280;59918;51.280;7.950;2022-12-18T04:26:07;99110.25;;;-2.86
72054;BMP280;59918;51.280;7.950;2022-12-18T04:28:33;99102.81;;;-2.88
72054;BMP280;59918;51.280;7.950;2022-12-18T04:30:58;99105.31;;;-2.88
72054;BMP280;59918;51.280;7.950;2022-12-18T04:33:23;99112.88;;;-2.88
72054;BMP280;59918;51.280;7.950;2022-12-18T04:35:48;99108.72;;;-2.89
72054;BMP280;59918;51.280;7.950;2022-12-18T04:38:14;99102.97;;;-2.91
72054;BMP280;59918;51.280;7.950;2022-12-18T04:40:39;99101.38;;;-2.91
72054;BMP280;59918;51.280;7.950;2022-12-18T04:43:05;99098.84;;;-2.91
72054;BMP280;59918;51.280;7.950;2022-12-18T04:45:31;99101.97;;;-2.88
72054;BMP280;59918;51.280;7.950;2022-12-18T04:47:57;99094.34;;;-2.87
72054;BMP280;59918;51.280;7.950;2022-12-18T04:50:23;99104.59;;;-2.90
72054;BMP280;59918;51.280;7.950;2022-12-18T04:52:48;99100.28;;;-2.88
72054;BMP280;59918;51.280;7.950;2022-12-18T04:55:13;99103.69;;;-2.89
72054;BMP280;59918;51.280;7.950;2022-12-18T04:57:38;99102.44;;;-2.82
72054;BMP280;59918;51.280;7.950;2022-12-18T05:00:04;99104.75;;;-2.79
72054;BMP280;59918;51.280;7.950;2022-12-18T05:02:29;99102.34;;;-2.80
72054;BMP280;59918;51.280;7.950;2022-12-18T05:04:55;99103.25;;;-2.81
72054;BMP280;59918;51.280;7.950;2022-12-18T05:07:20;99105.75;;;-2.81
72054;BMP280;59918;51.280;7.950;2022-12-18T05:09:45;99103.34;;;-2.83
72054;BMP280;59918;51.280;7.950;2022-12-18T05:12:10;99103.16;;;-2.80
72054;BMP280;59918;51.280;7.950;2022-12-18T05:14:35;99099.22;;;-2.84
72054;BMP280;59918;51.280;7.950;2022-12-18T05:17:01;99101.38;;;-2.91
72054;BMP280;59918;51.280;7.950;2022-12-18T05:19:26;99099.56;;;-2.90
72054;BMP280;59918;51.280;7.950;2022-12-18T05:21:51;99096.41;;;-2.93
72054;BMP280;59918;51.280;7.950;2022-12-18T05:24:16;99095.16;;;-3.00
72054;BMP280;59918;51.280;7.950;2022-12-18T05:26:42;99093.47;;;-2.99
72054;BMP280;59918;51.280;7.950;2022-12-18T05:29:07;99095.06;;;-2.98
72054;BMP280;59918;51.280;7.950;2022-12-18T05:31:32;99088.50;;;-3.01
72054;BMP280;59918;51.280;7.950;2022-12-18T05:33:57;99082.84;;;-3.04
72054;BMP280;59918;51.280;7.950;2022-12-18T05:36:23;99080.97;;;-3.01
72054;BMP280;59918;51.280;7.950;2022-12-18T05:38:48;99077.44;;;-2.98
72054;BMP280;59918;51.280;7.950;2022-12-18T05:41:13;99091.19;;;-3.04
72054;BMP280;59918;51.280;7.950;2022-12-18T05:43:39;99092.19;;;-3.20
72054;BMP280;59918;51.280;7.950;2022-12-18T05:46:06;99087.94;;;-3.33
72054;BMP280;59918;51.280;7.950;2022-12-18T05:48:32;99083.34;;;-3.41
72054;BMP280;59918;51.280;7.950;2022-12-18T05:51:04;99082.44;;;-3.54
72054;BMP280;59918;51.280;7.950;2022-12-18T05:53:29;99080.81;;;-3.55
72054;BMP280;59918;51.280;7.950;2022-12-18T05:56:00;99084.31;;;-3.57
72054;BMP280;59918;51.280;7.950;2022-12-18T05:58:25;99079.38;;;-3.59
72054;BMP280;59918;51.280;7.950;2022-12-18T06:00:50;99086.75;;;-3.56
72054;BMP280;59918;51.280;7.950;2022-12-18T06:03:15;99094.13;;;-3.53
72054;BMP280;59918;51.280;7.950;2022-12-18T06:05:43;99097.34;;;-3.51
72054;BMP280;59918;51.280;7.950;2022-12-18T06:08:09;99096.56;;;-3.51
72054;BMP280;59918;51.280;7.950;2022-12-18T06:10:34;99107.72;;;-3.41
72054;BMP280;59918;51.280;7.950;2022-12-18T06:13:00;99107.28;;;-3.34
72054;BMP280;59918;51.280;7.950;2022-12-18T06:15:25;99105.84;;;-3.24
72054;BMP280;59918;51.280;7.950;2022-12-18T06:17:51;99112.47;;;-3.23
72054;BMP280;59918;51.280;7.950;2022-12-18T06:20:16;99106.66;;;-3.24
72054;BMP280;59918;51.280;7.950;2022-12-18T06:22:41;99120.94;;;-3.24
72054;BMP280;59918;51.280;7.950;2022-12-18T06:25:07;99125.97;;;-3.24
72054;BMP280;59918;51.280;7.950;2022-12-18T06:27:32;99125.25;;;-3.26
72054;BMP280;59918;51.280;7.950;2022-12-18T06:29:58;99120.22;;;-3.26
72054;BMP280;59918;51.280;7.950;2022-12-18T06:32:23;99130.94;;;-3.23
72054;BMP280;59918;51.280;7.950;2022-12-18T06:34:48;99131.72;;;-3.22
72054;BMP280;59918;51.280;7.950;2022-12-18T06:37:13;99131.66;;;-3.21
72054;BMP280;59918;51.280;7.950;2022-12-18T06:39:39;99142.44;;;-3.19
72054;BMP280;59918;51.280;7.950;2022-12-18T06:42:04;99135.78;;;-3.20
72054;BMP280;59918;51.280;7.950;2022-12-18T06:44:29;99133.97;;;-3.18
72054;BMP280;59918;51.280;7.950;2022-12-18T06:46:55;99133.63;;;-3.12
72054;BMP280;59918;51.280;7.950;2022-12-18T06:49:20;99128.88;;;-3.16
72054;BMP280;59918;51.280;7.950;2022-12-18T06:51:46;99137.47;;;-3.20
72054;BMP280;59918;51.280;7.950;2022-12-18T06:54:11;99128.88;;;-3.16
72054;BMP280;59918;51.280;7.950;2022-12-18T06:56:36;99122.84;;;-3.14
72054;BMP280;59918;51.280;7.950;2022-12-18T06:59:01;99115.41;;;-3.15
72054;BMP280;59918;51.280;7.950;2022-12-18T07:01:27;99108.00;;;-3.04
72054;BMP280;59918;51.280;7.950;2022-12-18T07:03:53;99104.41;;;-3.00
72054;BMP280;59918;51.280;7.950;2022-12-18T07:06:20;99102.81;;;-3.01
72054;BMP280;59918;51.280;7.950;2022-12-18T07:08:46;99106.06;;;-2.99
72054;BMP280;59918;51.280;7.950;2022-12-18T07:11:12;99106.41;;;-2.91
72054;BMP280;59918;51.280;7.950;2022-12-18T07:13:37;99097.06;;;-2.90
72054;BMP280;59918;51.280;7.950;2022-12-18T07:16:11;99093.53;;;-2.87
72054;BMP280;59918;51.280;7.950;2022-12-18T07:18:37;99096.56;;;-2.82
72054;BMP280;59918;51.280;7.950;2022-12-18T07:21:07;99100.53;;;-2.78
72054;BMP280;59918;51.280;7.950;2022-12-18T07:23:34;99100.66;;;-2.80
72054;BMP280;59918;51.280;7.950;2022-12-18T07:26:01;99097.22;;;-2.79
72054;BMP280;59918;51.280;7.950;2022-12-18T07:28:26;99100.72;;;-2.81
72054;BMP280;59918;51.280;7.950;2022-12-18T07:30:52;99106.75;;;-2.84
72054;BMP280;59918;51.280;7.950;2022-12-18T07:33:17;99107.94;;;-2.89
72054;BMP280;59918;51.280;7.950;2022-12-18T07:35:42;99098.84;;;-2.91
72054;BMP280;59918;51.280;7.950;2022-12-18T07:38:07;99103.34;;;-2.83
72054;BMP280;59918;51.280;7.950;2022-12-18T07:40:33;99109.81;;;-2.79
72054;BMP280;59918;51.280;7.950;2022-12-18T07:42:58;99092.88;;;-2.77
72054;BMP280;59918;51.280;7.950;2022-12-18T07:45:23;99091.28;;;-2.78
72054;BMP280;59918;51.280;7.950;2022-12-18T07:47:48;99079.31;;;-2.74
72054;BMP280;59918;51.280;7.950;2022-12-18T07:50:14;99081.56;;;-2.70
72054;BMP280;59918;51.280;7.950;2022-12-18T07:52:39;99095.75;;;-2.69
72054;BMP280;59918;51.280;7.950;2022-12-18T07:55:05;99086.22;;;-2.64
72054;BMP280;59918;51.280;7.950;2022-12-18T07:57:30;99081.72;;;-2.59
72054;BMP280;59918;51.280;7.950;2022-12-18T07:59:55;99077.94;;;-2.52
72054;BMP280;59918;51.280;7.950;2022-12-18T08:02:20;99084.31;;;-2.47
72054;BMP280;59918;51.280;7.950;2022-12-18T08:04:46;99073.75;;;-2.39
72054;BMP280;59918;51.280;7.950;2022-12-18T08:07:11;99085.97;;;-2.33
72054;BMP280;59918;51.280;7.950;2022-12-18T08:09:36;99074.63;;;-2.26
72054;BMP280;59918;51.280;7.950;2022-12-18T08:12:02;99085.13;;;-2.20
72054;BMP280;59918;51.280;7.950;2022-12-18T08:14:27;99070.63;;;-2.17
72054;BMP280;59918;51.280;7.950;2022-12-18T08:16:52;99078.69;;;-2.12
72054;BMP280;59918;51.280;7.950;2022-12-18T08:19:17;99080.09;;;-2.08
72054;BMP280;59918;51.280;7.950;2022-12-18T08:21:43;99071.19;;;-1.99
72054;BMP280;59918;51.280;7.950;2022-12-18T08:24:08;99074.03;;;-1.91
72054;BMP280;59918;51.280;7.950;2022-12-18T08:26:34;99069.28;;;-1.83
72054;BMP280;59918;51.280;7.950;2022-12-18T08:29:00;99067.81;;;-1.74
72054;BMP280;59918;51.280;7.950;2022-12-18T08:31:27;99075.06;;;-1.69
72054;BMP280;59918;51.280;7.950;2022-12-18T08:33:53;99060.66;;;-1.67
72054;BMP280;59918;51.280;7.950;2022-12-18T08:36:19;99059.75;;;-1.66
72054;BMP280;59918;51.280;7.950;2022-12-18T08:38:45;99068.13;;;-1.66
72054;BMP280;59918;51.280;7.950;2022-12-18T08:41:12;99068.13;;;-1.66
72054;BMP280;59918;51.280;7.950;2022-12-18T08:43:38;99060.56;;;-1.66
72054;BMP280;59918;51.280;7.950;2022-12-18T08:46:03;99051.25;;;-1.65
72054;BMP280;59918;51.280;7.950;2022-12-18T08:48:29;99048.16;;;-1.56
72054;BMP280;59918;51.280;7.950;2022-12-18T08:50:58;99052.69;;;-1.49
72054;BMP280;59918;51.280;7.950;2022-12-18T08:53:23;99029.47;;;-1.42
72054;BMP280;59918;51.280;7.950;2022-12-18T08:55:49;99028.16;;;-1.22
72054;BMP280;59918;51.280;7.950;2022-12-18T08:58:14;99030.56;;;-1.09
72054;BMP280;59918;51.280;7.950;2022-12-18T09:00:39;99007.81;;;-0.96
72054;BMP280;59918;51.280;7.950;2022-12-18T09:03:04;98994.94;;;-0.81
72054;BMP280;59918;51.280;7.950;2022-12-18T09:05:30;98999.13;;;-0.69
72054;BMP280;59918;51.280;7.950;2022-12-18T09:07:55;98985.19;;;-0.62
72054;BMP280;59918;51.280;7.950;2022-12-18T09:10:20;98991.91;;;-0.50
72054;BMP280;59918;51.280;7.950;2022-12-18T09:12:45;98996.13;;;-0.28
72054;BMP280;59918;51.280;7.950;2022-12-18T09:15:11;98994.84;;;0.46
72054;BMP280;59918;51.280;7.950;2022-12-18T09:17:36;99000.03;;;1.51
72054;BMP280;59918;51.280;7.950;2022-12-18T09:20:01;98973.38;;;2.28
72054;BMP280;59918;51.280;7.950;2022-12-18T09:22:27;98978.28;;;3.00
72054;BMP280;59918;51.280;7.950;2022-12-18T09:24:52;98988.44;;;3.09
72054;BMP280;59918;51.280;7.950;2022-12-18T09:27:17;98980.63;;;3.40
72054;BMP280;59918;51.280;7.950;2022-12-18T09:29:42;98991.13;;;3.84
72054;BMP280;59918;51.280;7.950;2022-12-18T09:32:08;98983.69;;;4.28
72054;BMP280;59918;51.280;7.950;2022-12-18T09:34:33;98987.47;;;4.70
72054;BMP280;59918;51.280;7.950;2022-12-18T09:36:58;98979.66;;;4.44
72054;BMP280;59918;51.280;7.950;2022-12-18T09:39:23;98976.09;;;3.91
72054;BMP280;59918;51.280;7.950;2022-12-18T09:41:54;98968.47;;;3.91
72054;BMP280;59918;51.280;7.950;2022-12-18T09:47:12;98983.75;;;3.63
72054;BMP280;59918;51.280;7.950;2022-12-18T09:49:42;98964.19;;;3.35
72054;BMP280;59918;51.280;7.950;2022-12-18T09:52:24;98977.81;;;3.34
72054;BMP280;59918;51.280;7.950;2022-12-18T09:55:30;98965.78;;;3.73
72054;BMP280;59918;51.280;7.950;2022-12-18T09:57:58;98966.03;;;4.99
72054;BMP280;59918;51.280;7.950;2022-12-18T10:00:25;98935.72;;;4.96
72054;BMP280;59918;51.280;7.950;2022-12-18T10:02:53;98932.22;;;5.41
72054;BMP280;59918;51.280;7.950;2022-12-18T10:05:54;98929.19;;;5.54
72054;BMP280;59918;51.280;7.950;2022-12-18T10:08:51;98949.34;;;5.48
72054;BMP280;59918;51.280;7.950;2022-12-18T10:14:22;98952.25;;;4.92
72054;BMP280;59918;51.280;7.950;2022-12-18T10:17:12;98949.88;;;4.54
72054;BMP280;59918;51.280;7.950;2022-12-18T10:19:53;98938.25;;;4.33
72054;BMP280;59918;51.280;7.950;2022-12-18T10:22:21;98939.28;;;4.40
72054;BMP280;59918;51.280;7.950;2022-12-18T10:24:56;98929.66;;;4.43
72054;BMP280;59918;51.280;7.950;2022-12-18T10:27:25;98946.47;;;4.18
72054;BMP280;59918;51.280;7.950;2022-12-18T10:29:50;98911.09;;;4.15
72054;BMP280;59918;51.280;7.950;2022-12-18T10:32:19;98911.13;;;3.96
72054;BMP280;59918;51.280;7.950;2022-12-18T10:34:46;98917.69;;;4.08
72054;BMP280;59918;51.280;7.950;2022-12-18T10:37:19;98910.84;;;4.08
72054;BMP280;59918;51.280;7.950;2022-12-18T10:39:46;98888.06;;;4.07
72054;BMP280;59918;51.280;7.950;2022-12-18T10:42:19;98877.63;;;4.00
72054;BMP280;59918;51.280;7.950;2022-12-18T10:44:45;98883.81;;;3.98
72054;BMP280;59918;51.280;7.950;2022-12-18T10:47:19;98883.81;;;3.89
72054;BMP280;59918;51.280;7.950;2022-12-18T10:49:50;98888.00;;;3.80
72054;BMP280;59918;51.280;7.950;2022-12-18T10:52:21;98874.47;;;3.80
72054;BMP280;59918;51.280;7.950;2022-12-18T10:54:49;98910.78;;;3.72
72054;BMP280;59918;51.280;7.950;2022-12-18T10:57:17;98873.53;;;3.71
72054;BMP280;59918;51.280;7.950;2022-12-18T10:59:51;98882.78;;;3.82
72054;BMP280;59918;51.280;7.950;2022-12-18T11:02:28;98896.94;;;3.94
72054;BMP280;59918;51.280;7.950;2022-12-18T11:04:58;98848.31;;;3.87
72054;BMP280;59918;51.280;7.950;2022-12-18T11:07:24;98834.75;;;4.05
72054;BMP280;59918;51.280;7.950;2022-12-18T11:10:02;98852.41;;;4.16
72054;BMP280;59918;51.280;7.950;2022-12-18T11:12:28;98840.84;;;4.22
72054;BMP280;59918;51.280;7.950;2022-12-18T11:14:54;98844.97;;;4.32
72054;BMP280;59918;51.280;7.950;2022-12-18T11:17:39;98852.06;;;4.29
72054;BMP280;59918;51.280;7.950;2022-12-18T11:20:21;98839.03;;;4.41
72054;BMP280;59918;51.280;7.950;2022-12-18T11:23:03;98823.47;;;4.71
72054;BMP280;59918;51.280;7.950;2022-12-18T11:25:30;98820.69;;;4.81
72054;BMP280;59918;51.280;7.950;2022-12-18T11:28:29;98826.78;;;4.71
72054;BMP280;59918;51.280;7.950;2022-12-18T11:31:18;98821.66;;;4.54
72054;BMP280;59918;51.280;7.950;2022-12-18T11:33:49;98823.63;;;4.42
72054;BMP280;59918;51.280;7.950;2022-12-18T11:36:16;98823.97;;;4.21
72054;BMP280;59918;51.280;7.950;2022-12-18T11:38:43;98822.53;;;4.09
72054;BMP280;59918;51.280;7.950;2022-12-18T11:41:19;98830.31;;;4.07
72054;BMP280;59918;51.280;7.950;2022-12-18T11:43:59;98818.66;;;4.05
72054;BMP280;59918;51.280;7.950;2022-12-18T11:46:51;98828.38;;;3.92
72054;BMP280;59918;51.280;7.950;2022-12-18T11:49:26;98821.94;;;3.88
72054;BMP280;59918;51.280;7.950;2022-12-18T11:54:25;98821.94;;;3.98
72054;BMP280;59918;51.280;7.950;2022-12-18T11:56:56;98807.72;;;3.95
72054;BMP280;59918;51.280;7.950;2022-12-18T12:01:59;98807.34;;;3.90
72054;BMP280;59918;51.280;7.950;2022-12-18T12:04:32;98804.41;;;3.85
72054;BMP280;59918;51.280;7.950;2022-12-18T12:12:22;98784.25;;;3.65
72054;BMP280;59918;51.280;7.950;2022-12-18T12:17:47;98758.81;;;3.56
72054;BMP280;59918;51.280;7.950;2022-12-18T12:26:03;98753.63;;;3.48
72054;BMP280;59918;51.280;7.950;2022-12-18T12:31:28;98765.41;;;3.49
72054;BMP280;59918;51.280;7.950;2022-12-18T12:39:21;98773.16;;;3.57
72054;BMP280;59918;51.280;7.950;2022-12-18T12:41:48;98758.69;;;3.57
72054;BMP280;59918;51.280;7.950;2022-12-18T12:44:17;98756.28;;;3.56
72054;BMP280;59918;51.280;7.950;2022-12-18T12:46:44;98756.56;;;3.53
72054;BMP280;59918;51.280;7.950;2022-12-18T12:49:20;98761.66;;;3.43
72054;BMP280;59918;51.280;7.950;2022-12-18T12:51:55;98760.59;;;3.36
72054;BMP280;59918;51.280;7.950;2022-12-18T12:54:24;98757.13;;;3.28
72054;BMP280;59918;51.280;7.950;2022-12-18T12:57:11;98765.84;;;3.26
72054;BMP280;59918;51.280;7.950;2022-12-18T13:02:23;98754.47;;;3.20
72054;BMP280;59918;51.280;7.950;2022-12-18T13:05:02;98736.13;;;3.17
72054;BMP280;59918;51.280;7.950;2022-12-18T13:08:03;98739.75;;;3.14
72054;BMP280;59918;51.280;7.950;2022-12-18T13:15:47;98726.25;;;3.04
72054;BMP280;59918;51.280;7.950;2022-12-18T13:18:21;98718.22;;;2.99
72054;BMP280;59918;51.280;7.950;2022-12-18T13:20:49;98748.59;;;3.01
72054;BMP280;59918;51.280;7.950;2022-12-18T13:28:17;98761.06;;;2.94
72054;BMP280;59918;51.280;7.950;2022-12-18T13:30:49;98741.25;;;2.89
72054;BMP280;59918;51.280;7.950;2022-12-18T13:38:34;98740.72;;;2.76
72054;BMP280;59918;51.280;7.950;2022-12-18T13:46:26;98739.09;;;2.65
72054;BMP280;59918;51.280;7.950;2022-12-18T13:49:02;98750.59;;;2.60
72054;BMP280;59918;51.280;7.950;2022-12-18T13:51:29;98736.97;;;2.52
72054;BMP280;59918;51.280;7.950;2022-12-18T13:54:17;98754.97;;;2.49
72054;BMP280;59918;51.280;7.950;2022-12-18T13:56:44;98752.44;;;2.39
72054;BMP280;59918;51.280;7.950;2022-12-18T14:01:56;98754.97;;;2.30
72054;BMP280;59918;51.280;7.950;2022-12-18T14:04:31;98758.81;;;2.24
72054;BMP280;59918;51.280;7.950;2022-12-18T14:07:02;98746.41;;;2.21
72054;BMP280;59918;51.280;7.950;2022-12-18T14:09:36;98742.63;;;2.16
72054;BMP280;59918;51.280;7.950;2022-12-18T14:12:02;98754.91;;;2.11
72054;BMP280;59918;51.280;7.950;2022-12-18T14:14:28;98746.31;;;2.03
72054;BMP280;59918;51.280;7.950;2022-12-18T14:16:53;98749.38;;;1.97
72054;BMP280;59918;51.280;7.950;2022-12-18T14:19:21;98737.75;;;1.94
72054;BMP280;59918;51.280;7.950;2022-12-18T14:21:47;98744.81;;;1.91
72054;BMP280;59918;51.280;7.950;2022-12-18T14:24:18;98749.22;;;1.89
72054;BMP280;59918;51.280;7.950;2022-12-18T14:26:44;98754.13;;;1.81
72054;BMP280;59918;51.280;7.950;2022-12-18T14:29:23;98756.22;;;1.76
72054;BMP280;59918;51.280;7.950;2022-12-18T14:32:14;98752.59;;;1.69
72054;BMP280;59918;51.280;7.950;2022-12-18T14:34:40;98764.06;;;1.64
72054;BMP280;59918;51.280;7.950;2022-12-18T14:37:05;98768.16;;;1.55
72054;BMP280;59918;51.280;7.950;2022-12-18T14:39:34;98757.44;;;1.52
72054;BMP280;59918;51.280;7.950;2022-12-18T14:41:59;98749.56;;;1.45
72054;BMP280;59918;51.280;7.950;2022-12-18T14:44:24;98757.66;;;1.40
72054;BMP280;59918;51.280;7.950;2022-12-18T14:46:50;98745.38;;;1.35
72054;BMP280;59918;51.280;7.950;2022-12-18T14:51:48;98745.53;;;1.23
72054;BMP280;59918;51.280;7.950;2022-12-18T14:54:19;98759.75;;;1.14
72054;BMP280;59918;51.280;7.950;2022-12-18T14:56:56;98738.91;;;1.11
72054;BMP280;59918;51.280;7.950;2022-12-18T14:59:26;98734.47;;;1.04
72054;BMP280;59918;51.280;7.950;2022-12-18T15:01:59;98729.41;;;1.04
72054;BMP280;59918;51.280;7.950;2022-12-18T15:04:34;98727.25;;;0.99
72054;BMP280;59918;51.280;7.950;2022-12-18T15:09:28;98724.97;;;0.96
72054;BMP280;59918;51.280;7.950;2022-12-18T15:11:58;98736.13;;;0.94
72054;BMP280;59918;51.280;7.950;2022-12-18T15:14:30;98711.75;;;0.93
72054;BMP280;59918;51.280;7.950;2022-12-18T15:16:57;98727.72;;;0.93
72054;BMP280;59918;51.280;7.950;2022-12-18T15:19:32;98708.84;;;0.97
72054;BMP280;59918;51.280;7.950;2022-12-18T15:21:58;98702.41;;;0.93
72054;BMP280;59918;51.280;7.950;2022-12-18T15:24:29;98691.38;;;0.94
72054;BMP280;59918;51.280;7.950;2022-12-18T15:26:55;98687.22;;;0.93
72054;BMP280;59918;51.280;7.950;2022-12-18T15:29:21;98685.47;;;0.94
72054;BMP280;59918;51.280;7.950;2022-12-18T15:31:59;98679.50;;;0.95
72054;BMP280;59918;51.280;7.950;2022-12-18T15:34:24;98686.41;;;0.93
72054;BMP280;59918;51.280;7.950;2022-12-18T15:36:50;98680.28;;;0.95
72054;BMP280;59918;51.280;7.950;2022-12-18T15:39:18;98677.63;;;0.97
72054;BMP280;59918;51.280;7.950;2022-12-18T15:41:44;98664.03;;;0.98
72054;BMP280;59918;51.280;7.950;2022-12-18T15:44:35;98667.41;;;0.98
72054;BMP280;59918;51.280;7.950;2022-12-18T15:47:01;98673.50;;;0.96
72054;BMP280;59918;51.280;7.950;2022-12-18T15:49:26;98670.84;;;0.97